Dragonera — CQEN — position and weather

sailwx.info

Track history (hours):
 
Tides and Currents Weather Stations Pressure Air Temp Water Temp Dewpoint Dewpoint Depression Visibility Wind Speed Wind Dir Waves Ship Positions

Dragonera

Last reported at 2018-Feb-19 14:32 UTC. Time now 2018-Feb-20 07:40 UTC.
Position N 56°02' W 003°42'.

Length 100 m; draft 5.2 m.

Type: Cargo ship. MMSI: 255805691.

Date/timePositionNaut miles runAvg speedWind from/ knotsBaromVisibWave heightAir tempDewpointWater temp
2018-Feb-19 14:32N 56°02' W 003°42'0 2.4
2018-Feb-19 14:31N 56°02' W 003°42'1 1.5
2018-Feb-19 13:55N 56°02' W 003°40'5 9.0
2018-Feb-19 13:23N 56°02' W 003°32'511.8
2018-Feb-19 12:59N 56°00' W 003°24'612.2
2018-Feb-19 12:30N 56°02' W 003°14'510.3
2018-Feb-19 12:00N 56°04' W 003°05'3 5.2
2018-Feb-19 11:30N 56°04' W 003°01'4 7.2
2018-Feb-19 11:00N 56°06' W 002°55'4 8.1
2018-Feb-19 10:30N 56°07' W 002°48'4 8.4
2018-Feb-19 10:00N 56°07' W 002°40'5 9.8
2018-Feb-19 09:30N 56°07' W 002°32'510.7
2018-Feb-19 09:00N 56°05' W 002°23'510.9
2018-Feb-19 08:30N 56°03' W 002°14'511.0
2018-Feb-19 08:00N 56°02' W 002°04'510.5
2018-Feb-19 07:30N 55°59' W 001°56'510.2
2018-Feb-19 07:00N 55°56' W 001°49'510.2
2018-Feb-19 06:30N 55°53' W 001°42'510.2
2018-Feb-19 06:00N 55°49' W 001°35'610.4
2018-Feb-19 05:25N 55°45' W 001°27'410.4
2018-Feb-19 05:00N 55°42' W 001°21'510.2
2018-Feb-19 04:29N 55°38' W 001°16'610.3
2018-Feb-19 03:57N 55°33' W 001°11'410.2
2018-Feb-19 03:30N 55°29' W 001°07'510.3
2018-Feb-19 03:00N 55°25' W 001°03'610.3
2018-Feb-19 02:27N 55°20' W 000°58'510.2
2018-Feb-19 01:57N 55°16' W 000°53'1810.9
2018-Feb-19 00:20N 55°00' W 000°38'65 8.2
2018-Feb-18 16:24N 54°01' E 000°11'4 3.7
2018-Feb-18 15:19N 53°59' E 000°16'4612.0
2018-Feb-18 11:31N 53°24' E 001°06'111.9
2018-Feb-18 11:23N 53°22' E 001°07'411.3
2018-Feb-18 11:00N 53°19' E 001°11'510.8
2018-Feb-18 10:30N 53°14' E 001°16'510.1
2018-Feb-18 10:00N 53°10' E 001°20'5 9.6
2018-Feb-18 09:31N 53°06' E 001°25'5 9.3
2018-Feb-18 09:01N 53°02' E 001°29'5 9.0
2018-Feb-18 08:31N 52°58' E 001°33'4 9.0
2018-Feb-18 08:01N 52°55' E 001°38'5 9.2
2018-Feb-18 07:31N 52°52' E 001°44'5 9.6
2018-Feb-18 07:01N 52°49' E 001°50'5 9.6
2018-Feb-18 06:30N 52°46' E 001°57'5 9.7
2018-Feb-18 06:01N 52°43' E 002°03'510.8
2018-Feb-18 05:31N 52°38' E 002°01'2712.0
2018-Feb-18 03:17N 52°12' E 001°54'311.4
2018-Feb-18 03:00N 52°08' E 001°54'611.3
2018-Feb-18 02:30N 52°03' E 001°53'611.1
2018-Feb-18 02:00N 51°57' E 001°50'510.5
2018-Feb-18 01:30N 51°52' E 001°48'510.1
2018-Feb-18 01:00N 51°47' E 001°48'510.0
2018-Feb-18 00:30N 51°42' E 001°48'5 9.5
2018-Feb-18 00:00N 51°38' E 001°49'5 9.5
2018-Feb-17 23:30N 51°33' E 001°47'5 9.1
2018-Feb-17 23:00N 51°28' E 001°46'4 9.0
2018-Feb-17 22:31N 51°24' E 001°45'4 8.7
2018-Feb-17 22:00N 51°20' E 001°43'4 8.6
2018-Feb-17 21:30N 51°15' E 001°42'4 8.2
2018-Feb-17 21:00N 51°12' E 001°38'4 7.4
2018-Feb-17 20:30N 51°09' E 001°35'4 8.5
2018-Feb-17 20:00N 51°05' E 001°38'4 8.8
2018-Feb-17 19:30N 51°02' E 001°33'5 9.3
2018-Feb-17 19:00N 50°58' E 001°28'5 9.4
2018-Feb-17 18:31N 50°54' E 001°25'5 9.6
2018-Feb-17 18:00N 50°49' E 001°23'5 9.6
2018-Feb-17 17:31N 50°45' E 001°21'5 9.1
2018-Feb-17 16:58N 50°41' E 001°17'5 9.8
2018-Feb-17 16:30N 50°38' E 001°11'5 9.6
2018-Feb-17 16:00N 50°35' E 001°05'5 9.6
2018-Feb-17 15:29N 50°32' E 000°59'5 9.4
2018-Feb-17 15:00N 50°30' E 000°52'5 9.5
2018-Feb-17 14:30N 50°29' E 000°45'5 9.4
2018-Feb-17 13:59N 50°27' E 000°38'5 9.5
2018-Feb-17 13:28N 50°26' E 000°30'4 9.7
2018-Feb-17 13:00N 50°25' E 000°24'5 9.8
2018-Feb-17 12:30N 50°23' E 000°16'510.3
2018-Feb-17 12:00N 50°22' E 000°08'510.7
2018-Feb-17 11:30N 50°21' E 000°00'511.1
2018-Feb-17 11:00N 50°19' W 000°08'611.8
2018-Feb-17 10:30N 50°18' W 000°17'612.5
2018-Feb-17 10:00N 50°16' W 000°27'713.0
2018-Feb-17 09:29N 50°14' W 000°36'1213.2
2018-Feb-17 08:36N 50°10' W 000°54'113.4
2018-Feb-17 08:30N 50°10' W 000°56'713.4
2018-Feb-17 08:00N 50°08' W 001°06'713.0
2018-Feb-17 07:30N 50°07' W 001°16'612.5
2018-Feb-17 07:00N 50°05' W 001°25'612.1
2018-Feb-17 06:30N 50°04' W 001°34'611.5
2018-Feb-17 06:00N 50°02' W 001°43'611.3
2018-Feb-17 05:30N 50°01' W 001°51'510.4
2018-Feb-17 05:00N 49°59' W 001°59'5 9.6
2018-Feb-17 04:30N 49°58' W 002°06'5 8.9
2018-Feb-17 04:00N 49°56' W 002°13'21 8.6
2018-Feb-17 01:33N 49°50' W 002°44'1 9.2
2018-Feb-17 01:28N 49°49' W 002°45'5 9.4
2018-Feb-17 00:59N 49°48' W 002°52'1410.1
2018-Feb-16 23:34N 49°41' W 003°11'110.5
2018-Feb-16 23:26N 49°41' W 003°13'4210.3
2018-Feb-16 19:20N 49°19' W 004°09'811.0
2018-Feb-16 18:35N 49°15' W 004°20'411.3
2018-Feb-16 18:12N 49°13' W 004°25'211.5
2018-Feb-16 17:59N 49°11' W 004°29'911.5
2018-Feb-16 17:12N 49°07' W 004°41'211.5
2018-Feb-16 17:00N 49°06' W 004°44'611.5
2018-Feb-16 16:30N 49°03' W 004°52'611.5
2018-Feb-16 16:00N 49°00' W 004°59'611.2
2018-Feb-16 15:30N 48°58' W 005°07'510.9
2018-Feb-16 15:00N 48°56' W 005°15'611.1
2018-Feb-16 14:30N 48°53' W 005°22'3 6.7
2018-Feb-16 14:00N 48°51' W 005°26'2 3.7
2018-Feb-16 13:29N 48°49' W 005°28'510.4
2018-Feb-16 13:00N 48°47' W 005°34'5 9.7
2018-Feb-16 12:30N 48°44' W 005°40'510.2
2018-Feb-16 12:00N 48°39' W 005°44'610.4
2018-Feb-16 11:28N 48°34' W 005°47'510.2
2018-Feb-16 10:57N 48°29' W 005°50'4 9.8
2018-Feb-16 10:29N 48°25' W 005°53'5 9.7
2018-Feb-16 09:59N 48°21' W 005°57'  
2018-Feb-12 04:49N 39°14' W 010°25'7010.9
2018-Feb-11 22:27N 38°11' W 011°04'611.5
2018-Feb-11 21:57N 38°06' W 011°06'  
Track history (hours):
 
Tides and Currents Weather Stations Pressure Air Temp Water Temp Dewpoint Dewpoint Depression Visibility Wind Speed Wind Dir Waves Ship Positions

Dragonera

Last reported at 2018-Feb-19 14:32 UTC. Time now 2018-Feb-20 07:40 UTC.
Position N 56°02' W 003°42'.

Length 100 m; draft 5.2 m.

Type: Cargo ship. MMSI: 255805691.

Date/timePositionNaut miles runAvg speedWind from/ knotsBaromVisibWave heightAir tempDewpointWater temp
2018-Feb-19 14:32N 56°02' W 003°42'0 2.4
2018-Feb-19 14:31N 56°02' W 003°42'1 1.5
2018-Feb-19 13:55N 56°02' W 003°40'5 9.0
2018-Feb-19 13:23N 56°02' W 003°32'511.8
2018-Feb-19 12:59N 56°00' W 003°24'612.2
2018-Feb-19 12:30N 56°02' W 003°14'510.3
2018-Feb-19 12:00N 56°04' W 003°05'3 5.2
2018-Feb-19 11:30N 56°04' W 003°01'4 7.2
2018-Feb-19 11:00N 56°06' W 002°55'4 8.1
2018-Feb-19 10:30N 56°07' W 002°48'4 8.4
2018-Feb-19 10:00N 56°07' W 002°40'5 9.8
2018-Feb-19 09:30N 56°07' W 002°32'510.7
2018-Feb-19 09:00N 56°05' W 002°23'510.9
2018-Feb-19 08:30N 56°03' W 002°14'511.0
2018-Feb-19 08:00N 56°02' W 002°04'510.5
2018-Feb-19 07:30N 55°59' W 001°56'510.2
2018-Feb-19 07:00N 55°56' W 001°49'510.2
2018-Feb-19 06:30N 55°53' W 001°42'510.2
2018-Feb-19 06:00N 55°49' W 001°35'610.4
2018-Feb-19 05:25N 55°45' W 001°27'410.4
2018-Feb-19 05:00N 55°42' W 001°21'510.2
2018-Feb-19 04:29N 55°38' W 001°16'610.3
2018-Feb-19 03:57N 55°33' W 001°11'410.2
2018-Feb-19 03:30N 55°29' W 001°07'510.3
2018-Feb-19 03:00N 55°25' W 001°03'610.3
2018-Feb-19 02:27N 55°20' W 000°58'510.2
2018-Feb-19 01:57N 55°16' W 000°53'1810.9
2018-Feb-19 00:20N 55°00' W 000°38'65 8.2
2018-Feb-18 16:24N 54°01' E 000°11'4 3.7
2018-Feb-18 15:19N 53°59' E 000°16'4612.0
2018-Feb-18 11:31N 53°24' E 001°06'111.9
2018-Feb-18 11:23N 53°22' E 001°07'411.3
2018-Feb-18 11:00N 53°19' E 001°11'510.8
2018-Feb-18 10:30N 53°14' E 001°16'510.1
2018-Feb-18 10:00N 53°10' E 001°20'5 9.6
2018-Feb-18 09:31N 53°06' E 001°25'5 9.3
2018-Feb-18 09:01N 53°02' E 001°29'5 9.0
2018-Feb-18 08:31N 52°58' E 001°33'4 9.0
2018-Feb-18 08:01N 52°55' E 001°38'5 9.2
2018-Feb-18 07:31N 52°52' E 001°44'5 9.6
2018-Feb-18 07:01N 52°49' E 001°50'5 9.6
2018-Feb-18 06:30N 52°46' E 001°57'5 9.7
2018-Feb-18 06:01N 52°43' E 002°03'510.8
2018-Feb-18 05:31N 52°38' E 002°01'2712.0
2018-Feb-18 03:17N 52°12' E 001°54'311.4
2018-Feb-18 03:00N 52°08' E 001°54'611.3
2018-Feb-18 02:30N 52°03' E 001°53'611.1
2018-Feb-18 02:00N 51°57' E 001°50'510.5
2018-Feb-18 01:30N 51°52' E 001°48'510.1
2018-Feb-18 01:00N 51°47' E 001°48'510.0
2018-Feb-18 00:30N 51°42' E 001°48'5 9.5
2018-Feb-18 00:00N 51°38' E 001°49'5 9.5
2018-Feb-17 23:30N 51°33' E 001°47'5 9.1
2018-Feb-17 23:00N 51°28' E 001°46'4 9.0
2018-Feb-17 22:31N 51°24' E 001°45'4 8.7
2018-Feb-17 22:00N 51°20' E 001°43'4 8.6
2018-Feb-17 21:30N 51°15' E 001°42'4 8.2
2018-Feb-17 21:00N 51°12' E 001°38'4 7.4
2018-Feb-17 20:30N 51°09' E 001°35'4 8.5
2018-Feb-17 20:00N 51°05' E 001°38'4 8.8
2018-Feb-17 19:30N 51°02' E 001°33'5 9.3
2018-Feb-17 19:00N 50°58' E 001°28'5 9.4
2018-Feb-17 18:31N 50°54' E 001°25'5 9.6
2018-Feb-17 18:00N 50°49' E 001°23'5 9.6
2018-Feb-17 17:31N 50°45' E 001°21'5 9.1
2018-Feb-17 16:58N 50°41' E 001°17'5 9.8
2018-Feb-17 16:30N 50°38' E 001°11'5 9.6
2018-Feb-17 16:00N 50°35' E 001°05'5 9.6
2018-Feb-17 15:29N 50°32' E 000°59'5 9.4
2018-Feb-17 15:00N 50°30' E 000°52'5 9.5
2018-Feb-17 14:30N 50°29' E 000°45'5 9.4
2018-Feb-17 13:59N 50°27' E 000°38'5 9.5
2018-Feb-17 13:28N 50°26' E 000°30'4 9.7
2018-Feb-17 13:00N 50°25' E 000°24'5 9.8
2018-Feb-17 12:30N 50°23' E 000°16'510.3
2018-Feb-17 12:00N 50°22' E 000°08'510.7
2018-Feb-17 11:30N 50°21' E 000°00'511.1
2018-Feb-17 11:00N 50°19' W 000°08'611.8
2018-Feb-17 10:30N 50°18' W 000°17'612.5
2018-Feb-17 10:00N 50°16' W 000°27'713.0
2018-Feb-17 09:29N 50°14' W 000°36'1213.2
2018-Feb-17 08:36N 50°10' W 000°54'113.4
2018-Feb-17 08:30N 50°10' W 000°56'713.4
2018-Feb-17 08:00N 50°08' W 001°06'713.0
2018-Feb-17 07:30N 50°07' W 001°16'612.5
2018-Feb-17 07:00N 50°05' W 001°25'612.1
2018-Feb-17 06:30N 50°04' W 001°34'611.5
2018-Feb-17 06:00N 50°02' W 001°43'611.3
2018-Feb-17 05:30N 50°01' W 001°51'510.4
2018-Feb-17 05:00N 49°59' W 001°59'5 9.6
2018-Feb-17 04:30N 49°58' W 002°06'5 8.9
2018-Feb-17 04:00N 49°56' W 002°13'21 8.6
2018-Feb-17 01:33N 49°50' W 002°44'1 9.2
2018-Feb-17 01:28N 49°49' W 002°45'5 9.4
2018-Feb-17 00:59N 49°48' W 002°52'1410.1
2018-Feb-16 23:34N 49°41' W 003°11'110.5
2018-Feb-16 23:26N 49°41' W 003°13'4210.3
2018-Feb-16 19:20N 49°19' W 004°09'811.0
2018-Feb-16 18:35N 49°15' W 004°20'411.3
2018-Feb-16 18:12N 49°13' W 004°25'211.5
2018-Feb-16 17:59N 49°11' W 004°29'911.5
2018-Feb-16 17:12N 49°07' W 004°41'211.5
2018-Feb-16 17:00N 49°06' W 004°44'611.5
2018-Feb-16 16:30N 49°03' W 004°52'611.5
2018-Feb-16 16:00N 49°00' W 004°59'611.2
2018-Feb-16 15:30N 48°58' W 005°07'510.9
2018-Feb-16 15:00N 48°56' W 005°15'611.1
2018-Feb-16 14:30N 48°53' W 005°22'3 6.7
2018-Feb-16 14:00N 48°51' W 005°26'2 3.7
2018-Feb-16 13:29N 48°49' W 005°28'510.4
2018-Feb-16 13:00N 48°47' W 005°34'5 9.7
2018-Feb-16 12:30N 48°44' W 005°40'510.2
2018-Feb-16 12:00N 48°39' W 005°44'610.4
2018-Feb-16 11:28N 48°34' W 005°47'510.2
2018-Feb-16 10:57N 48°29' W 005°50'4 9.8
2018-Feb-16 10:29N 48°25' W 005°53'5 9.7
2018-Feb-16 09:59N 48°21' W 005°57'  
2018-Feb-12 04:49N 39°14' W 010°25'7010.9
2018-Feb-11 22:27N 38°11' W 011°04'611.5
2018-Feb-11 21:57N 38°06' W 011°06'  

Dump ship's entire track history